createdAt,value
2022-12-31T00:00:14.980Z,15.77
2022-12-31T00:02:42.241Z,9.77
2022-12-31T00:05:09.929Z,10.13
2022-12-31T00:10:05.273Z,11.10
2022-12-31T00:12:31.950Z,13.03
2022-12-31T00:14:58.655Z,16.13
2022-12-31T00:17:25.328Z,16.67
2022-12-31T00:19:54.274Z,13.53
2022-12-31T00:22:21.004Z,14.33
2022-12-31T00:24:47.693Z,17.80
2022-12-31T00:27:14.419Z,13.23
2022-12-31T00:29:41.354Z,13.87
2022-12-31T00:32:08.127Z,11.17
2022-12-31T00:34:34.718Z,11.40
2022-12-31T00:37:02.483Z,8.70
2022-12-31T00:39:29.187Z,10.00
2022-12-31T00:41:56.501Z,11.03
2022-12-31T00:44:23.300Z,10.97
2022-12-31T00:46:50.100Z,9.43
2022-12-31T00:49:17.112Z,11.60
2022-12-31T00:51:44.044Z,7.20
2022-12-31T00:54:10.753Z,13.73
2022-12-31T00:56:37.342Z,7.40
2022-12-31T00:59:04.356Z,8.30
2022-12-31T01:01:34.772Z,8.97
2022-12-31T01:04:13.426Z,13.17
2022-12-31T01:06:40.972Z,10.10
2022-12-31T01:09:08.642Z,8.20
2022-12-31T01:11:36.100Z,8.20
2022-12-31T01:14:07.012Z,12.03
2022-12-31T01:16:49.469Z,14.17
2022-12-31T01:19:20.203Z,11.95
2022-12-31T01:21:48.567Z,14.27
2022-12-31T01:24:16.134Z,11.87
2022-12-31T01:26:43.319Z,16.30
2022-12-31T01:29:10.537Z,12.23
2022-12-31T01:31:38.191Z,14.50
2022-12-31T01:34:05.613Z,11.57
2022-12-31T01:36:36.177Z,15.40
2022-12-31T01:39:05.706Z,12.03
2022-12-31T01:41:41.025Z,9.73
2022-12-31T01:44:13.738Z,11.67
2022-12-31T01:47:01.087Z,18.88
2022-12-31T01:49:41.016Z,11.03
2022-12-31T01:52:12.176Z,13.17
2022-12-31T01:54:44.698Z,12.27
2022-12-31T01:57:12.793Z,9.63
2022-12-31T01:59:39.670Z,17.20
2022-12-31T02:02:06.589Z,8.97
2022-12-31T02:04:33.440Z,14.40
2022-12-31T02:07:03.728Z,12.53
2022-12-31T02:09:32.544Z,12.60
2022-12-31T02:11:59.730Z,10.83
2022-12-31T02:14:43.854Z,9.47
2022-12-31T02:17:44.246Z,8.57
2022-12-31T02:20:25.910Z,11.83
2022-12-31T02:22:52.480Z,15.70
2022-12-31T02:25:34.353Z,11.73
2022-12-31T02:28:06.662Z,12.83
2022-12-31T02:30:34.875Z,12.93
2022-12-31T02:33:10.620Z,11.47
2022-12-31T02:35:58.672Z,12.37
2022-12-31T02:38:33.121Z,16.73
2022-12-31T02:41:00.989Z,13.60
2022-12-31T02:43:27.839Z,14.90
2022-12-31T02:46:26.009Z,23.53
2022-12-31T02:49:01.710Z,19.53
2022-12-31T02:51:51.818Z,17.27
2022-12-31T02:54:28.716Z,16.10
2022-12-31T02:57:38.041Z,18.23
2022-12-31T03:00:34.322Z,19.23
2022-12-31T03:03:08.902Z,18.53
2022-12-31T03:05:41.697Z,12.97
2022-12-31T03:08:09.337Z,19.63
2022-12-31T03:10:37.007Z,25.57
2022-12-31T03:13:03.842Z,14.60
2022-12-31T03:15:33.747Z,16.67
2022-12-31T03:18:13.317Z,11.97
2022-12-31T03:21:02.975Z,13.80
2022-12-31T03:23:39.513Z,13.80
2022-12-31T03:26:10.685Z,12.43
2022-12-31T03:28:39.390Z,18.37
2022-12-31T03:31:09.456Z,14.10
2022-12-31T03:33:39.339Z,13.03
2022-12-31T03:36:11.891Z,18.07
2022-12-31T03:38:38.598Z,16.23
2022-12-31T03:41:05.739Z,15.13
2022-12-31T03:43:32.480Z,13.77
2022-12-31T03:46:01.541Z,12.50
2022-12-31T03:48:28.730Z,15.97
2022-12-31T03:50:55.683Z,12.30
2022-12-31T03:53:22.316Z,11.73
2022-12-31T03:55:53.437Z,11.03
2022-12-31T03:59:19.938Z,11.83
2022-12-31T04:02:46.622Z,13.60
2022-12-31T04:09:56.087Z,13.97
2022-12-31T04:13:22.523Z,18.30
2022-12-31T04:16:52.221Z,17.37
2022-12-31T04:19:19.081Z,13.83
2022-12-31T04:21:45.754Z,18.80
2022-12-31T04:24:12.556Z,15.27
2022-12-31T04:26:39.761Z,13.47
2022-12-31T04:29:06.331Z,14.27
2022-12-31T04:31:33.322Z,13.60
2022-12-31T04:34:00.080Z,10.33
2022-12-31T04:36:26.989Z,10.90
2022-12-31T04:38:53.685Z,10.60
2022-12-31T04:41:20.895Z,13.47
2022-12-31T04:43:52.812Z,14.80
2022-12-31T04:46:22.135Z,17.07
2022-12-31T04:48:48.783Z,12.37
2022-12-31T04:51:16.226Z,17.30
2022-12-31T04:53:42.965Z,15.20
2022-12-31T04:56:10.605Z,15.53
2022-12-31T04:58:39.465Z,12.20
2022-12-31T05:01:07.146Z,12.80
2022-12-31T05:03:35.162Z,14.57
2022-12-31T05:06:06.675Z,13.57
2022-12-31T05:08:33.987Z,15.23
2022-12-31T05:11:01.048Z,11.03
2022-12-31T05:13:32.957Z,12.90
2022-12-31T05:16:00.326Z,14.75
2022-12-31T05:18:27.004Z,12.50
2022-12-31T05:20:53.799Z,15.50
2022-12-31T05:23:20.760Z,14.97
2022-12-31T05:25:48.104Z,11.93
2022-12-31T05:28:16.277Z,11.47
2022-12-31T05:30:44.378Z,8.83
2022-12-31T05:33:11.100Z,10.50
2022-12-31T05:35:37.748Z,15.50
2022-12-31T05:38:04.559Z,22.43
2022-12-31T05:40:31.226Z,14.37
2022-12-31T05:42:57.967Z,13.70
2022-12-31T05:45:30.427Z,13.07
2022-12-31T05:47:57.792Z,11.80
2022-12-31T05:50:24.590Z,12.30
2022-12-31T05:52:51.504Z,13.33
2022-12-31T05:55:18.139Z,13.53
2022-12-31T05:57:44.744Z,11.47
2022-12-31T06:00:12.099Z,16.20
2022-12-31T06:02:38.891Z,12.63
2022-12-31T06:05:05.842Z,11.53
2022-12-31T06:07:32.938Z,11.87
2022-12-31T06:09:59.690Z,13.10
2022-12-31T06:12:26.437Z,13.03
2022-12-31T06:14:53.153Z,10.13
2022-12-31T06:17:20.662Z,11.80
2022-12-31T06:19:47.330Z,13.23
2022-12-31T06:22:14.132Z,7.57
2022-12-31T06:24:41.003Z,12.77
2022-12-31T06:27:07.621Z,9.70
2022-12-31T06:29:34.329Z,12.40
2022-12-31T06:32:00.950Z,11.80
2022-12-31T06:34:27.578Z,11.17
2022-12-31T06:36:54.373Z,12.70
2022-12-31T06:39:21.240Z,14.57
2022-12-31T06:41:47.879Z,11.97
2022-12-31T06:44:15.045Z,10.37
2022-12-31T06:46:41.877Z,12.60
2022-12-31T06:49:08.665Z,9.73
2022-12-31T06:51:35.466Z,8.03
2022-12-31T06:54:02.683Z,10.90
2022-12-31T06:56:34.353Z,10.73
2022-12-31T06:59:03.483Z,9.88
2022-12-31T07:02:05.615Z,12.10
2022-12-31T07:04:42.718Z,8.73
2022-12-31T07:07:21.708Z,9.70
2022-12-31T07:10:02.686Z,6.17
2022-12-31T07:12:59.174Z,11.03
2022-12-31T07:16:04.620Z,9.57
2022-12-31T07:18:40.453Z,7.47
2022-12-31T07:21:19.412Z,10.00
2022-12-31T07:23:46.362Z,9.23
2022-12-31T07:26:42.833Z,9.77
2022-12-31T07:29:24.633Z,7.30
2022-12-31T07:31:54.225Z,13.17
2022-12-31T07:34:32.686Z,9.23
2022-12-31T07:37:15.562Z,9.77
2022-12-31T07:39:55.935Z,8.65
2022-12-31T07:42:29.737Z,12.97
2022-12-31T07:45:17.967Z,9.97
2022-12-31T07:47:45.073Z,9.07
2022-12-31T07:50:17.522Z,9.67
2022-12-31T07:52:45.060Z,12.55
2022-12-31T07:55:11.965Z,8.60
2022-12-31T07:57:52.417Z,8.30
2022-12-31T08:00:19.476Z,9.13
2022-12-31T08:03:17.153Z,8.43
2022-12-31T08:06:11.057Z,9.23
2022-12-31T08:09:04.786Z,8.83
2022-12-31T08:11:46.251Z,10.70
2022-12-31T08:15:12.748Z,10.27
2022-12-31T08:18:51.298Z,7.73
2022-12-31T08:22:25.057Z,9.00
2022-12-31T08:25:32.641Z,9.30
2022-12-31T08:28:31.192Z,12.10
2022-12-31T08:32:00.626Z,10.07
2022-12-31T08:35:19.532Z,9.90
2022-12-31T08:37:55.168Z,9.87
2022-12-31T08:40:28.635Z,11.10
2022-12-31T08:43:20.764Z,7.13
2022-12-31T08:45:50.119Z,9.70
2022-12-31T08:48:42.832Z,10.90
2022-12-31T08:51:20.331Z,9.10
2022-12-31T08:53:48.418Z,10.37
2022-12-31T08:56:30.502Z,14.17
2022-12-31T08:59:15.709Z,15.30
2022-12-31T09:01:51.318Z,12.47
2022-12-31T09:04:43.783Z,11.47
2022-12-31T09:07:12.117Z,22.63
2022-12-31T09:09:47.505Z,12.07
2022-12-31T09:12:35.898Z,13.37
2022-12-31T09:15:30.672Z,9.57
2022-12-31T09:17:57.867Z,11.20
2022-12-31T09:20:42.377Z,14.57
2022-12-31T09:23:11.227Z,9.97
2022-12-31T09:26:06.445Z,12.07
2022-12-31T09:28:43.272Z,11.83
2022-12-31T09:31:21.893Z,14.60
2022-12-31T09:33:58.002Z,15.67
2022-12-31T09:36:30.942Z,14.30
2022-12-31T09:41:55.733Z,8.30
2022-12-31T09:45:00.004Z,10.93
2022-12-31T09:47:51.519Z,8.97
2022-12-31T09:50:52.695Z,10.53
2022-12-31T09:53:31.413Z,10.00
2022-12-31T09:56:11.837Z,9.23
2022-12-31T09:58:41.217Z,7.73
2022-12-31T10:01:13.546Z,7.57
2022-12-31T10:04:27.955Z,9.38
2022-12-31T10:07:09.770Z,5.93
2022-12-31T10:09:46.238Z,5.27
2022-12-31T10:12:27.286Z,5.67
2022-12-31T10:15:05.936Z,29.03
2022-12-31T10:17:53.812Z,11.90
2022-12-31T10:20:26.450Z,7.47
2022-12-31T10:23:26.553Z,6.28
2022-12-31T10:26:14.121Z,6.13
2022-12-31T10:28:56.174Z,4.43
2022-12-31T10:31:44.649Z,5.20
2022-12-31T10:34:16.137Z,11.00
2022-12-31T10:37:04.135Z,6.50
2022-12-31T10:39:47.580Z,9.27
2022-12-31T10:42:29.649Z,6.50
2022-12-31T10:45:05.066Z,7.60
2022-12-31T10:47:43.706Z,5.90
2022-12-31T10:50:33.619Z,7.50
2022-12-31T10:53:09.586Z,2.43
2022-12-31T10:55:51.443Z,2.80
2022-12-31T10:58:44.321Z,6.17
2022-12-31T11:01:14.272Z,2.08
2022-12-31T11:03:56.302Z,2.97
2022-12-31T11:06:57.147Z,1.83
2022-12-31T11:09:39.091Z,3.63
2022-12-31T11:12:27.629Z,3.40
2022-12-31T11:15:10.217Z,7.10
2022-12-31T11:17:51.941Z,3.35
2022-12-31T11:20:51.674Z,2.27
2022-12-31T11:23:39.758Z,1.63
2022-12-31T11:26:44.915Z,2.93
2022-12-31T11:29:23.461Z,2.03
2022-12-31T11:32:06.224Z,2.90
2022-12-31T11:34:58.737Z,1.80
2022-12-31T11:37:48.788Z,2.95
2022-12-31T11:40:27.337Z,2.80
2022-12-31T11:43:11.329Z,1.47
2022-12-31T11:46:08.001Z,0.63
2022-12-31T11:49:00.942Z,0.77
2022-12-31T11:51:48.444Z,1.50
2022-12-31T11:54:38.392Z,2.53
2022-12-31T11:57:32.645Z,4.23
2022-12-31T12:00:02.523Z,1.90
2022-12-31T12:02:34.854Z,1.13
2022-12-31T12:05:10.728Z,3.30
2022-12-31T12:07:38.039Z,2.10
2022-12-31T12:10:19.602Z,2.77
2022-12-31T12:12:46.290Z,2.43
2022-12-31T12:15:20.911Z,2.67
2022-12-31T12:17:52.755Z,4.90
2022-12-31T12:20:26.960Z,5.63
2022-12-31T12:22:56.410Z,4.20
2022-12-31T12:25:26.645Z,1.47
2022-12-31T12:27:54.251Z,4.10
2022-12-31T12:30:28.681Z,2.13
2022-12-31T12:32:57.070Z,2.53
2022-12-31T12:35:29.650Z,2.70
2022-12-31T12:38:06.003Z,1.73
2022-12-31T12:40:34.658Z,6.70
2022-12-31T12:43:02.925Z,4.17
2022-12-31T12:45:40.228Z,4.63
2022-12-31T12:48:26.544Z,7.03
2022-12-31T12:50:53.295Z,6.17
2022-12-31T12:53:41.667Z,6.13
2022-12-31T12:56:30.680Z,6.13
2022-12-31T12:59:19.640Z,4.53
2022-12-31T13:02:11.013Z,6.80
2022-12-31T13:04:50.655Z,4.85
2022-12-31T13:07:23.758Z,5.40
2022-12-31T13:09:59.592Z,6.10
2022-12-31T13:13:13.900Z,7.60
2022-12-31T13:15:49.455Z,10.40
2022-12-31T13:18:40.780Z,5.63
2022-12-31T13:21:32.591Z,8.67
2022-12-31T13:24:14.542Z,6.13
2022-12-31T13:26:54.848Z,6.33
2022-12-31T13:29:26.390Z,8.77
2022-12-31T13:31:57.010Z,13.73
2022-12-31T13:34:29.233Z,9.93
2022-12-31T13:36:59.614Z,9.63
2022-12-31T13:39:31.259Z,11.70
2022-12-31T13:42:25.757Z,16.60
2022-12-31T13:45:02.632Z,10.57
2022-12-31T13:47:39.365Z,11.23
2022-12-31T13:50:27.781Z,11.13
2022-12-31T13:52:58.563Z,11.70
2022-12-31T13:55:42.491Z,13.70
2022-12-31T13:58:31.668Z,13.60
2022-12-31T14:01:13.949Z,13.80
2022-12-31T14:03:49.435Z,13.10
2022-12-31T14:06:36.755Z,13.93
2022-12-31T14:09:04.854Z,9.47
2022-12-31T14:11:37.278Z,13.20
2022-12-31T14:14:19.930Z,15.60
2022-12-31T14:17:08.724Z,17.33
2022-12-31T14:20:02.947Z,16.70
2022-12-31T14:22:52.023Z,13.70
2022-12-31T14:25:27.841Z,12.27
2022-12-31T14:27:56.694Z,11.70
2022-12-31T14:30:30.908Z,14.40
2022-12-31T14:33:15.646Z,12.13
2022-12-31T14:36:20.412Z,12.13
2022-12-31T14:39:24.588Z,18.40
2022-12-31T14:42:02.887Z,12.20
2022-12-31T14:45:04.292Z,18.40
2022-12-31T14:47:59.740Z,17.13
2022-12-31T14:50:29.687Z,8.87
2022-12-31T14:53:17.800Z,11.63
2022-12-31T14:55:44.487Z,15.47
2022-12-31T14:58:35.142Z,16.20
2022-12-31T15:01:08.605Z,15.57
2022-12-31T15:03:44.714Z,10.80
2022-12-31T15:06:24.493Z,17.70
2022-12-31T15:09:12.995Z,15.50
2022-12-31T15:11:39.573Z,10.73
2022-12-31T15:14:37.938Z,10.43
2022-12-31T15:17:32.446Z,11.60
2022-12-31T15:20:26.434Z,12.30
2022-12-31T15:22:54.508Z,11.40
2022-12-31T15:25:40.116Z,11.23
2022-12-31T15:28:28.675Z,12.20
2022-12-31T15:31:03.743Z,13.20
2022-12-31T15:33:32.549Z,15.67
2022-12-31T15:36:21.364Z,15.10
2022-12-31T15:38:49.064Z,17.07
2022-12-31T15:41:19.811Z,13.97
2022-12-31T15:43:52.476Z,12.43
2022-12-31T15:46:24.183Z,21.13
2022-12-31T15:49:03.752Z,19.40
2022-12-31T15:51:54.179Z,16.97
2022-12-31T15:54:36.331Z,19.60
2022-12-31T15:57:09.218Z,12.73
2022-12-31T15:59:38.229Z,16.33
2022-12-31T16:02:17.891Z,14.67
2022-12-31T16:04:45.060Z,48.43
2022-12-31T16:07:12.624Z,31.07
2022-12-31T16:09:40.036Z,34.97
2022-12-31T16:12:16.025Z,70.40
2022-12-31T16:14:58.521Z,20.93
2022-12-31T16:17:36.755Z,29.08
2022-12-31T16:20:23.867Z,12.43
2022-12-31T16:22:57.645Z,17.20
2022-12-31T16:25:33.121Z,21.07
2022-12-31T16:28:03.063Z,17.17
2022-12-31T16:30:32.621Z,17.63
2022-12-31T16:33:03.170Z,15.33
2022-12-31T16:35:38.614Z,14.87
2022-12-31T16:38:08.051Z,14.83
2022-12-31T16:40:35.462Z,11.97
2022-12-31T16:43:02.206Z,13.23
2022-12-31T16:46:25.340Z,21.30
2022-12-31T16:49:14.309Z,21.60
2022-12-31T16:51:41.642Z,12.53
2022-12-31T16:54:19.628Z,13.00
2022-12-31T16:56:46.551Z,48.33
2022-12-31T16:59:29.327Z,17.90
2022-12-31T17:02:03.108Z,18.73
2022-12-31T17:04:30.110Z,13.87
2022-12-31T17:07:25.571Z,13.20
2022-12-31T17:10:07.735Z,13.53
2022-12-31T17:13:17.077Z,15.83
2022-12-31T17:18:03.651Z,14.97
2022-12-31T17:20:33.547Z,17.23
2022-12-31T17:23:05.339Z,18.67
2022-12-31T17:25:34.316Z,15.20
2022-12-31T17:28:05.541Z,17.13
2022-12-31T17:30:35.302Z,16.40
2022-12-31T17:33:22.034Z,20.83
2022-12-31T17:35:54.411Z,20.23
2022-12-31T17:38:21.020Z,16.70
2022-12-31T17:40:53.639Z,17.03
2022-12-31T17:43:22.914Z,38.65
2022-12-31T17:45:54.473Z,34.40
2022-12-31T17:48:25.029Z,25.13
2022-12-31T17:50:57.074Z,15.03
2022-12-31T17:53:24.253Z,14.52
2022-12-31T17:55:57.192Z,14.27
2022-12-31T18:00:58.005Z,16.73
2022-12-31T18:03:24.872Z,18.80
2022-12-31T18:05:51.507Z,32.57
2022-12-31T18:08:18.393Z,19.03
2022-12-31T18:10:45.608Z,29.30
2022-12-31T18:13:22.397Z,39.93
2022-12-31T18:15:49.587Z,11.00
2022-12-31T18:18:28.423Z,32.97
2022-12-31T18:20:58.702Z,30.60
2022-12-31T18:23:39.136Z,25.60
2022-12-31T18:26:06.110Z,44.47
2022-12-31T18:28:32.831Z,28.17
2022-12-31T18:30:59.760Z,22.57
2022-12-31T18:33:26.916Z,24.50
2022-12-31T18:36:10.437Z,21.50
2022-12-31T18:38:38.241Z,16.60
2022-12-31T18:41:05.643Z,16.07
2022-12-31T18:43:32.461Z,42.97
2022-12-31T18:46:00.001Z,32.37
2022-12-31T18:48:26.825Z,28.17
2022-12-31T18:50:53.688Z,31.20
2022-12-31T18:53:26.981Z,29.47
2022-12-31T18:55:56.162Z,57.10
2022-12-31T18:58:23.460Z,44.23
2022-12-31T19:00:51.621Z,36.97
2022-12-31T19:03:31.634Z,51.17
2022-12-31T19:05:58.326Z,41.10
2022-12-31T19:08:25.077Z,66.57
2022-12-31T19:10:52.774Z,45.47
2022-12-31T19:13:20.108Z,30.03
2022-12-31T19:15:51.905Z,64.30
2022-12-31T19:18:19.221Z,21.33
2022-12-31T19:20:46.453Z,33.33
2022-12-31T19:23:16.481Z,16.90
2022-12-31T19:25:43.182Z,23.93
2022-12-31T19:28:28.493Z,28.23
2022-12-31T19:30:55.395Z,27.97
2022-12-31T19:33:22.239Z,30.20
2022-12-31T19:35:49.321Z,27.87
2022-12-31T19:38:25.463Z,22.83
2022-12-31T19:40:53.900Z,18.70
2022-12-31T19:43:22.356Z,24.87
2022-12-31T19:45:50.998Z,19.37
2022-12-31T19:48:21.031Z,28.67
2022-12-31T19:50:50.669Z,24.13
2022-12-31T19:53:25.763Z,32.43
2022-12-31T19:55:52.918Z,26.67
2022-12-31T19:58:22.045Z,28.57
2022-12-31T20:00:54.817Z,29.27
2022-12-31T20:03:22.764Z,23.70
2022-12-31T20:05:49.707Z,28.00
2022-12-31T20:08:20.405Z,43.73
2022-12-31T20:10:47.127Z,38.17
2022-12-31T20:13:13.764Z,52.80
2022-12-31T20:15:47.730Z,33.10
2022-12-31T20:18:17.606Z,31.80
2022-12-31T20:20:51.653Z,26.80
2022-12-31T20:23:23.336Z,28.27
2022-12-31T20:25:57.888Z,29.70
2022-12-31T20:28:24.709Z,28.10
2022-12-31T20:30:51.692Z,29.50
2022-12-31T20:33:19.345Z,27.30
2022-12-31T20:35:46.694Z,30.27
2022-12-31T20:38:14.603Z,28.03
2022-12-31T20:40:46.409Z,28.37
2022-12-31T20:43:13.733Z,28.48
2022-12-31T20:45:41.755Z,30.03
2022-12-31T20:48:08.590Z,39.67
2022-12-31T20:50:37.521Z,36.33
2022-12-31T20:53:04.222Z,32.77
2022-12-31T20:55:32.301Z,40.33
2022-12-31T20:58:00.580Z,48.67
2022-12-31T21:00:27.206Z,51.43
2022-12-31T21:03:03.920Z,43.47
2022-12-31T21:05:33.481Z,45.20
2022-12-31T21:08:00.414Z,43.13
2022-12-31T21:10:27.017Z,38.33
2022-12-31T21:12:54.037Z,41.80
2022-12-31T21:15:21.683Z,42.03
2022-12-31T21:17:48.549Z,40.33
2022-12-31T21:20:15.340Z,37.17
2022-12-31T21:22:42.042Z,42.63
2022-12-31T21:25:10.558Z,39.00
2022-12-31T21:27:37.333Z,38.27
2022-12-31T21:30:20.394Z,40.47
2022-12-31T21:35:42.299Z,35.87
2022-12-31T21:38:06.002Z,42.83
2022-12-31T21:40:33.044Z,40.33
2022-12-31T21:43:00.240Z,43.73
2022-12-31T21:45:27.083Z,44.07
2022-12-31T21:48:12.252Z,52.07
2022-12-31T21:50:39.260Z,53.87
2022-12-31T21:53:05.983Z,56.07
2022-12-31T21:55:51.252Z,55.87
2022-12-31T21:58:27.034Z,53.20
2022-12-31T22:01:13.985Z,49.57
2022-12-31T22:03:41.136Z,51.07
2022-12-31T22:06:20.723Z,49.33
2022-12-31T22:08:50.085Z,49.60
2022-12-31T22:11:18.468Z,43.33
2022-12-31T22:13:45.779Z,43.73
2022-12-31T22:16:15.460Z,70.70
2022-12-31T22:18:44.137Z,77.67
2022-12-31T22:21:19.010Z,58.03
2022-12-31T22:23:48.579Z,47.33
2022-12-31T22:26:17.106Z,45.70
2022-12-31T22:28:45.171Z,38.30
2022-12-31T22:31:21.678Z,38.30
2022-12-31T22:33:48.553Z,44.57
2022-12-31T22:36:18.264Z,44.63
2022-12-31T22:38:46.078Z,40.07
2022-12-31T22:41:18.947Z,40.53
2022-12-31T22:43:49.184Z,39.22
2022-12-31T22:46:17.209Z,46.47
2022-12-31T22:48:44.025Z,41.47
2022-12-31T22:51:11.639Z,44.73
2022-12-31T22:53:39.933Z,44.50
2022-12-31T22:56:07.536Z,46.43
2022-12-31T22:58:34.760Z,45.03
2022-12-31T23:01:08.652Z,43.37
2022-12-31T23:03:35.635Z,42.27
2022-12-31T23:06:02.395Z,37.80
2022-12-31T23:08:29.078Z,40.07
2022-12-31T23:11:02.512Z,40.90
2022-12-31T23:13:58.709Z,35.23
2022-12-31T23:16:46.720Z,36.37
2022-12-31T23:19:33.202Z,27.63
2022-12-31T23:22:18.989Z,21.73
2022-12-31T23:24:45.723Z,10.57
2022-12-31T23:27:12.365Z,4.13
2022-12-31T23:29:46.063Z,1.83
2022-12-31T23:32:17.597Z,2.23
2022-12-31T23:34:45.680Z,3.33
2022-12-31T23:37:13.600Z,1.77
2022-12-31T23:39:40.515Z,4.47
2022-12-31T23:42:07.294Z,3.10
2022-12-31T23:44:33.945Z,2.40
2022-12-31T23:47:00.812Z,2.63
2022-12-31T23:49:27.618Z,2.27
2022-12-31T23:51:54.200Z,1.83
2022-12-31T23:55:20.809Z,1.90
